createdAt,value
2019-05-17T00:02:17.593Z,93.38
2019-05-17T00:04:47.397Z,94.19
2019-05-17T00:07:17.194Z,93.54
2019-05-17T00:09:47.855Z,94.49
2019-05-17T00:12:17.936Z,94.89
2019-05-17T00:14:47.823Z,94.32
2019-05-17T00:17:17.598Z,94.58
2019-05-17T00:19:47.236Z,94.72
2019-05-17T00:22:16.934Z,94.29
2019-05-17T00:24:47.722Z,95.41
2019-05-17T00:27:17.427Z,95.65
2019-05-17T00:29:47.047Z,94.83
2019-05-17T00:32:17.267Z,94.23
2019-05-17T00:34:47.116Z,93.21
2019-05-17T00:37:17.420Z,93.98
2019-05-17T00:39:47.345Z,93.11
2019-05-17T00:42:17.213Z,93.39
2019-05-17T00:44:47.401Z,94.09
2019-05-17T00:47:17.300Z,93.89
2019-05-17T00:49:46.894Z,94.16
2019-05-17T00:52:16.797Z,94.28
2019-05-17T00:54:46.901Z,94.64
2019-05-17T00:57:16.790Z,94.02
2019-05-17T00:59:47.608Z,94.11
2019-05-17T01:02:17.348Z,94.35
2019-05-17T01:04:47.650Z,95.11
2019-05-17T01:07:17.836Z,95.17
2019-05-17T01:09:47.537Z,94.97
2019-05-17T01:12:17.357Z,95.85
2019-05-17T01:14:46.931Z,95.50
2019-05-17T01:17:16.702Z,95.19
2019-05-17T01:19:47.262Z,95.93
2019-05-17T01:22:17.065Z,95.07
2019-05-17T01:24:46.759Z,96.21
2019-05-17T01:27:17.201Z,95.38
2019-05-17T01:29:47.010Z,95.73
2019-05-17T01:32:17.191Z,95.85
2019-05-17T01:34:47.153Z,95.07
2019-05-17T01:37:17.305Z,95.34
2019-05-17T01:39:47.001Z,95.29
2019-05-17T01:42:17.192Z,95.33
2019-05-17T01:44:47.345Z,95.14
2019-05-17T01:47:17.051Z,95.73
2019-05-17T01:49:47.066Z,94.52
2019-05-17T01:52:16.918Z,94.97
2019-05-17T01:54:47.081Z,94.66
2019-05-17T01:57:16.955Z,95.08
2019-05-17T01:59:46.846Z,94.57
2019-05-17T02:02:23.947Z,95.16
2019-05-17T02:04:53.699Z,95.18
2019-05-17T02:07:23.344Z,94.66
2019-05-17T02:09:53.000Z,94.55
2019-05-17T02:12:22.636Z,95.05
2019-05-17T02:14:52.229Z,95.13
2019-05-17T02:17:21.908Z,95.38
2019-05-17T02:19:51.478Z,95.51
2019-05-17T02:22:21.046Z,94.89
2019-05-17T02:24:50.640Z,94.86
2019-05-17T02:27:21.981Z,94.46
2019-05-17T02:29:51.965Z,95.13
2019-05-17T02:32:23.508Z,94.71
2019-05-17T02:34:53.194Z,95.17
2019-05-17T02:37:23.255Z,95.33
2019-05-17T02:40:02.429Z,95.34
2019-05-17T02:42:24.198Z,95.45
2019-05-17T02:44:53.820Z,95.14
2019-05-17T02:47:23.483Z,95.79
2019-05-17T02:49:53.071Z,94.97
2019-05-17T02:52:23.083Z,94.09
2019-05-17T02:54:52.931Z,94.11
2019-05-17T02:57:23.463Z,93.87
2019-05-17T02:59:53.214Z,94.96
2019-05-17T03:02:27.590Z,94.76
2019-05-17T03:04:54.060Z,95.75
2019-05-17T03:07:23.659Z,94.99
2019-05-17T03:10:03.967Z,95.44
2019-05-17T03:12:24.486Z,95.04
2019-05-17T03:14:54.243Z,94.50
2019-05-17T03:17:23.831Z,94.47
2019-05-17T03:19:53.403Z,93.75
2019-05-17T03:22:23.294Z,93.82
2019-05-17T03:24:53.459Z,93.43
2019-05-17T03:27:23.481Z,93.27
2019-05-17T03:29:53.878Z,93.72
2019-05-17T03:32:26.558Z,93.24
2019-05-17T03:34:56.747Z,93.39
2019-05-17T03:37:32.505Z,92.68
2019-05-17T03:39:57.795Z,92.52
2019-05-17T03:42:27.532Z,93.17
2019-05-17T03:44:57.424Z,92.79
2019-05-17T03:47:27.002Z,93.09
2019-05-17T03:49:56.758Z,92.52
2019-05-17T03:52:26.355Z,92.55
2019-05-17T03:54:56.044Z,93.85
2019-05-17T03:57:25.573Z,93.61
2019-05-17T03:59:55.153Z,93.04
2019-05-17T04:02:24.835Z,92.64
2019-05-17T04:04:54.485Z,92.58
2019-05-17T04:07:24.073Z,93.46
2019-05-17T04:09:53.659Z,93.27
2019-05-17T04:12:23.484Z,92.57
2019-05-17T04:14:53.606Z,92.21
2019-05-17T04:17:23.249Z,93.20
2019-05-17T04:19:53.481Z,92.47
2019-05-17T04:22:24.003Z,92.48
2019-05-17T04:24:53.677Z,92.48
2019-05-17T04:27:23.330Z,92.34
2019-05-17T04:29:53.423Z,92.57
2019-05-17T04:32:23.566Z,91.73
2019-05-17T04:34:53.254Z,92.65
2019-05-17T04:37:23.190Z,91.85
2019-05-17T04:39:52.881Z,92.75
2019-05-17T04:42:22.922Z,92.71
2019-05-17T04:44:52.997Z,91.98
2019-05-17T04:47:23.093Z,90.89
2019-05-17T04:49:53.821Z,91.81
2019-05-17T04:52:23.506Z,92.42
2019-05-17T04:54:53.923Z,91.27
2019-05-17T04:57:23.629Z,91.08
2019-05-17T04:59:53.178Z,91.35
2019-05-17T05:02:23.655Z,92.12
2019-05-17T05:04:53.600Z,92.09
2019-05-17T05:07:23.213Z,92.46
2019-05-17T05:09:52.829Z,90.98
2019-05-17T05:12:22.981Z,91.34
2019-05-17T05:14:52.539Z,91.51
2019-05-17T05:17:22.300Z,90.74
2019-05-17T05:19:53.063Z,91.51
2019-05-17T05:22:22.898Z,91.61
2019-05-17T05:24:52.597Z,91.77
2019-05-17T05:27:22.391Z,91.21
2019-05-17T05:29:52.253Z,92.19
2019-05-17T05:32:22.123Z,91.34
2019-05-17T05:34:52.052Z,91.71
2019-05-17T05:37:23.169Z,92.69
2019-05-17T05:39:54.681Z,93.02
2019-05-17T05:42:24.459Z,93.92
2019-05-17T05:44:55.561Z,94.08
2019-05-17T05:47:25.198Z,93.96
2019-05-17T05:49:54.784Z,93.14
2019-05-17T05:52:24.354Z,93.46
2019-05-17T05:54:54.003Z,93.68
2019-05-17T05:57:23.574Z,93.00
2019-05-17T05:59:53.163Z,92.80
2019-05-17T06:02:22.735Z,94.09
2019-05-17T06:04:52.303Z,93.04
2019-05-17T06:07:21.906Z,93.12
2019-05-17T06:09:51.868Z,92.94
2019-05-17T06:12:27.591Z,92.40
2019-05-17T06:14:52.807Z,92.38
2019-05-17T06:17:22.364Z,92.98
2019-05-17T06:19:52.298Z,91.86
2019-05-17T06:22:22.479Z,91.49
2019-05-17T06:24:52.186Z,91.16
2019-05-17T06:27:21.729Z,90.87
2019-05-17T06:29:51.612Z,91.23
2019-05-17T06:32:22.803Z,92.04
2019-05-17T06:34:52.620Z,90.75
2019-05-17T06:37:22.519Z,90.89
2019-05-17T06:39:52.753Z,91.21
2019-05-17T06:42:37.023Z,91.85
2019-05-17T06:44:53.593Z,92.31
2019-05-17T06:47:23.547Z,90.04
2019-05-17T06:49:53.646Z,90.00
2019-05-17T06:52:23.405Z,89.46
2019-05-17T06:54:52.995Z,89.87
2019-05-17T06:57:23.267Z,90.11
2019-05-17T06:59:53.078Z,89.23
2019-05-17T07:02:22.717Z,89.22
2019-05-17T07:04:54.034Z,89.87
2019-05-17T07:07:26.457Z,89.48
2019-05-17T07:10:00.522Z,89.39
2019-05-17T07:12:30.955Z,89.85
2019-05-17T07:15:01.676Z,89.14
2019-05-17T07:17:31.600Z,88.96
2019-05-17T07:20:01.995Z,89.44
2019-05-17T07:22:31.605Z,88.58
2019-05-17T07:25:01.186Z,89.24
2019-05-17T07:27:40.640Z,89.56
2019-05-17T07:30:02.303Z,88.25
2019-05-17T07:32:31.931Z,89.54
2019-05-17T07:35:01.507Z,88.69
2019-05-17T07:37:31.104Z,89.29
2019-05-17T07:40:04.740Z,89.45
2019-05-17T07:42:32.020Z,88.73
2019-05-17T07:45:01.630Z,87.97
2019-05-17T07:47:31.219Z,88.49
2019-05-17T07:50:01.361Z,87.68
2019-05-17T07:52:30.918Z,88.59
2019-05-17T07:55:02.287Z,88.87
2019-05-17T07:57:31.844Z,89.02
2019-05-17T08:00:01.600Z,88.57
2019-05-17T08:02:31.181Z,88.89
2019-05-17T08:05:00.847Z,89.13
2019-05-17T08:07:30.487Z,89.48
2019-05-17T08:10:00.372Z,90.48
2019-05-17T08:12:30.661Z,89.64
2019-05-17T08:15:00.429Z,89.79
2019-05-17T08:17:30.749Z,91.05
2019-05-17T08:20:00.877Z,89.56
2019-05-17T08:22:30.566Z,90.97
2019-05-17T08:25:00.316Z,89.98
2019-05-17T08:27:30.076Z,90.43
2019-05-17T08:30:00.027Z,92.10
2019-05-17T08:32:31.550Z,92.20
2019-05-17T08:35:02.006Z,92.21
2019-05-17T08:37:31.583Z,91.85
2019-05-17T08:40:01.825Z,91.89
2019-05-17T08:42:31.733Z,92.16
2019-05-17T08:45:01.636Z,91.54
2019-05-17T08:47:31.343Z,91.94
2019-05-17T08:50:01.284Z,91.45
2019-05-17T08:52:30.878Z,91.84
2019-05-17T08:55:00.583Z,91.83
2019-05-17T08:57:30.511Z,90.13
2019-05-17T09:00:00.982Z,89.40
2019-05-17T09:02:30.823Z,89.87
2019-05-17T09:05:00.705Z,90.62
2019-05-17T09:07:30.276Z,88.67
2019-05-17T09:10:01.710Z,88.39
2019-05-17T09:12:31.911Z,86.64
2019-05-17T09:15:01.937Z,89.34
2019-05-17T09:17:31.498Z,86.29
2019-05-17T09:20:01.070Z,86.65
2019-05-17T09:22:31.249Z,88.48
2019-05-17T09:25:00.814Z,88.08
2019-05-17T09:27:30.634Z,87.62
2019-05-17T09:30:00.287Z,87.36
2019-05-17T09:32:29.884Z,88.93
2019-05-17T09:35:00.424Z,86.97
2019-05-17T09:37:30.495Z,86.97
2019-05-17T09:40:00.222Z,88.28
2019-05-17T09:42:30.180Z,88.44
2019-05-17T09:45:00.344Z,87.87
2019-05-17T09:47:30.276Z,87.83
2019-05-17T09:50:00.617Z,88.08
2019-05-17T09:52:30.312Z,87.25
2019-05-17T09:55:00.627Z,86.91
2019-05-17T09:57:30.432Z,87.67
2019-05-17T10:00:00.338Z,88.02
2019-05-17T10:02:30.024Z,89.03
2019-05-17T10:04:59.933Z,89.42
2019-05-17T10:07:29.934Z,89.36
2019-05-17T10:09:59.885Z,89.94
2019-05-17T10:12:29.555Z,89.74
2019-05-17T10:15:00.441Z,91.86
2019-05-17T10:17:30.219Z,93.06
2019-05-17T10:20:00.060Z,93.28
2019-05-17T10:22:30.365Z,92.52
2019-05-17T10:25:00.412Z,91.21
2019-05-17T10:27:30.382Z,92.12
2019-05-17T10:30:00.042Z,93.80
2019-05-17T10:32:30.951Z,93.16
2019-05-17T10:35:00.891Z,92.89
2019-05-17T10:37:30.533Z,93.00
2019-05-17T10:40:00.126Z,91.68
2019-05-17T10:42:30.544Z,92.77
2019-05-17T10:45:00.295Z,92.07
2019-05-17T10:47:30.276Z,92.61
2019-05-17T10:49:59.968Z,92.52
2019-05-17T10:52:30.095Z,92.49
2019-05-17T10:55:00.030Z,93.18
2019-05-17T10:57:30.238Z,93.57
2019-05-17T11:00:00.069Z,93.16
2019-05-17T11:02:30.445Z,92.18
2019-05-17T11:05:00.697Z,92.60
2019-05-17T11:07:30.664Z,93.38
2019-05-17T11:10:00.733Z,91.39
2019-05-17T11:12:30.512Z,92.10
2019-05-17T11:15:10.300Z,90.64
2019-05-17T11:17:31.388Z,90.01
2019-05-17T11:20:00.943Z,90.72
2019-05-17T11:22:30.598Z,91.45
2019-05-17T11:25:00.147Z,92.59
2019-05-17T11:27:29.740Z,89.34
2019-05-17T11:29:59.413Z,90.40
2019-05-17T11:32:28.998Z,89.81
2019-05-17T11:34:58.611Z,90.84
2019-05-17T11:37:28.218Z,91.02
2019-05-17T11:39:57.776Z,90.38
2019-05-17T11:42:27.371Z,91.38
2019-05-17T11:44:56.948Z,90.27
2019-05-17T11:47:26.518Z,90.25
2019-05-17T11:49:56.157Z,89.72
2019-05-17T11:52:25.805Z,89.61
2019-05-17T11:54:55.592Z,90.55
2019-05-17T11:57:25.258Z,88.03
2019-05-17T11:59:54.818Z,90.72
2019-05-17T12:02:24.392Z,90.57
2019-05-17T12:04:53.984Z,89.28
2019-05-17T12:07:23.575Z,90.47
2019-05-17T12:09:53.127Z,89.62
2019-05-17T12:12:22.710Z,90.13
2019-05-17T12:14:52.281Z,90.08
2019-05-17T12:17:21.851Z,91.38
2019-05-17T12:19:51.423Z,89.97
2019-05-17T12:22:21.017Z,91.87
2019-05-17T12:24:50.876Z,90.58
2019-05-17T12:27:20.661Z,90.97
2019-05-17T12:29:50.323Z,89.83
2019-05-17T12:32:20.022Z,91.21
2019-05-17T12:34:49.623Z,90.31
2019-05-17T12:37:19.256Z,90.42
2019-05-17T12:39:48.843Z,90.61
2019-05-17T12:42:18.432Z,89.61
2019-05-17T12:44:48.006Z,89.54
2019-05-17T12:47:17.703Z,89.78
2019-05-17T12:49:47.297Z,90.57
2019-05-17T12:52:16.965Z,89.26
2019-05-17T12:54:48.377Z,89.30
2019-05-17T12:57:18.039Z,89.03
2019-05-17T12:59:47.636Z,90.03
2019-05-17T13:02:17.499Z,87.60
2019-05-17T13:04:47.068Z,89.16
2019-05-17T13:07:16.759Z,87.14
2019-05-17T13:09:46.399Z,86.29
2019-05-17T13:12:15.992Z,84.39
2019-05-17T13:14:45.553Z,87.29
2019-05-17T13:17:15.297Z,86.07
2019-05-17T13:19:44.871Z,88.16
2019-05-17T13:22:14.508Z,83.77
2019-05-17T13:24:45.681Z,86.26
2019-05-17T13:27:15.354Z,83.88
2019-05-17T13:29:44.920Z,83.22
2019-05-17T13:32:14.512Z,83.30
2019-05-17T13:34:44.116Z,82.17
2019-05-17T13:37:13.685Z,78.33
2019-05-17T13:39:43.246Z,80.05
2019-05-17T13:42:12.855Z,79.84
2019-05-17T13:44:42.586Z,79.48
2019-05-17T13:47:12.178Z,80.07
2019-05-17T13:49:41.915Z,79.31
2019-05-17T13:52:11.491Z,77.65
2019-05-17T13:54:41.339Z,78.41
2019-05-17T13:57:11.537Z,78.27
2019-05-17T13:59:41.160Z,79.06
2019-05-17T14:02:10.772Z,78.23
2019-05-17T14:04:40.332Z,77.93
2019-05-17T14:07:10.042Z,78.19
2019-05-17T14:09:39.716Z,76.89
2019-05-17T14:12:09.422Z,74.89
2019-05-17T14:14:38.994Z,76.16
2019-05-17T14:17:08.840Z,74.07
2019-05-17T14:19:38.401Z,76.61
2019-05-17T14:22:07.992Z,75.56
2019-05-17T14:24:37.581Z,70.50
2019-05-17T14:27:09.024Z,72.57
2019-05-17T14:29:38.635Z,71.62
2019-05-17T14:32:08.712Z,73.05
2019-05-17T14:34:38.654Z,72.24
2019-05-17T14:37:08.230Z,70.29
2019-05-17T14:39:37.823Z,73.21
2019-05-17T14:42:07.498Z,73.21
2019-05-17T14:44:37.174Z,70.67
2019-05-17T14:47:06.909Z,71.44
2019-05-17T14:49:37.341Z,70.36
2019-05-17T14:52:07.293Z,68.98
2019-05-17T14:54:36.954Z,69.04
2019-05-17T14:57:06.621Z,69.66
2019-05-17T14:59:36.193Z,67.29
2019-05-17T15:02:05.773Z,68.16
2019-05-17T15:04:35.432Z,64.97
2019-05-17T15:07:05.122Z,66.85
2019-05-17T15:09:35.392Z,67.67
2019-05-17T15:12:05.033Z,66.48
2019-05-17T15:14:35.389Z,64.23
2019-05-17T15:17:05.143Z,66.02
2019-05-17T15:19:35.336Z,65.76
2019-05-17T15:22:05.113Z,65.07
2019-05-17T15:24:35.451Z,66.46
2019-05-17T15:27:06.320Z,63.84
2019-05-17T15:29:36.033Z,66.13
2019-05-17T15:32:05.657Z,66.30
2019-05-17T15:34:35.418Z,67.15
2019-05-17T15:37:05.246Z,64.38
2019-05-17T15:39:35.504Z,63.67
2019-05-17T15:42:05.132Z,64.87
2019-05-17T15:44:35.637Z,65.30
2019-05-17T15:47:05.254Z,66.20
2019-05-17T15:49:35.353Z,68.09
2019-05-17T15:52:05.272Z,65.07
2019-05-17T15:54:35.506Z,62.98
2019-05-17T15:57:05.214Z,65.10
2019-05-17T15:59:35.481Z,62.71
2019-05-17T16:02:05.455Z,63.62
2019-05-17T16:04:35.454Z,66.15
2019-05-17T16:07:05.310Z,65.68
2019-05-17T16:09:35.421Z,65.34
2019-05-17T16:12:05.120Z,65.49
2019-05-17T16:14:35.515Z,66.95
2019-05-17T16:17:05.138Z,66.65
2019-05-17T16:19:35.344Z,66.88
2019-05-17T16:22:05.003Z,66.65
2019-05-17T16:24:35.486Z,67.47
2019-05-17T16:27:05.175Z,67.47
2019-05-17T16:29:35.461Z,67.67
2019-05-17T16:32:05.174Z,67.07
2019-05-17T16:34:35.491Z,67.12
2019-05-17T16:37:05.137Z,68.66
2019-05-17T16:39:35.418Z,67.45
2019-05-17T16:42:05.124Z,66.82
2019-05-17T16:44:35.541Z,66.40
2019-05-17T16:47:05.261Z,66.62
2019-05-17T16:49:35.476Z,68.70
2019-05-17T16:52:05.264Z,65.75
2019-05-17T16:54:35.389Z,68.24
2019-05-17T16:57:05.047Z,67.71
2019-05-17T16:59:35.508Z,70.04
2019-05-17T17:02:05.380Z,67.34
2019-05-17T17:04:35.464Z,68.00
2019-05-17T17:07:05.164Z,68.40
2019-05-17T17:09:35.501Z,69.44
2019-05-17T17:12:05.348Z,69.12
2019-05-17T17:14:35.573Z,72.22
2019-05-17T17:17:10.904Z,71.02
2019-05-17T17:19:36.587Z,72.25
2019-05-17T17:22:06.292Z,68.55
2019-05-17T17:24:35.947Z,69.33
2019-05-17T17:27:05.579Z,68.76
2019-05-17T17:29:35.516Z,68.99
2019-05-17T17:32:05.148Z,69.23
2019-05-17T17:34:35.566Z,69.21
2019-05-17T17:37:05.847Z,68.88
2019-05-17T17:39:35.540Z,70.78
2019-05-17T17:42:05.577Z,71.01
2019-05-17T17:44:35.471Z,72.21
2019-05-17T17:47:05.206Z,73.64
2019-05-17T17:49:35.625Z,71.63
2019-05-17T17:52:05.261Z,71.53
2019-05-17T17:54:35.563Z,70.58
2019-05-17T17:57:05.338Z,70.44
2019-05-17T17:59:35.539Z,69.25
2019-05-17T18:02:05.297Z,69.71
2019-05-17T18:04:35.597Z,69.57
2019-05-17T18:07:05.887Z,70.22
2019-05-17T18:09:35.601Z,69.81
2019-05-17T18:12:05.425Z,70.27
2019-05-17T18:14:35.648Z,70.27
2019-05-17T18:17:05.473Z,71.03
2019-05-17T18:19:35.558Z,69.69
2019-05-17T18:22:05.245Z,70.78
2019-05-17T18:24:35.614Z,70.54
2019-05-17T18:27:05.254Z,70.77
2019-05-17T18:29:35.577Z,70.76
2019-05-17T18:32:05.569Z,70.84
2019-05-17T18:34:35.602Z,71.36
2019-05-17T18:37:05.432Z,71.58
2019-05-17T18:39:35.531Z,71.03
2019-05-17T18:42:05.225Z,70.78
2019-05-17T18:44:35.545Z,69.97
2019-05-17T18:47:05.240Z,71.08
2019-05-17T18:49:35.625Z,70.66
2019-05-17T18:52:05.324Z,70.97
2019-05-17T18:54:35.527Z,70.59
2019-05-17T18:57:05.125Z,70.59
2019-05-17T18:59:35.545Z,70.11
2019-05-17T19:02:05.264Z,70.64
2019-05-17T19:04:35.546Z,71.70
2019-05-17T19:07:05.187Z,71.25
2019-05-17T19:09:35.655Z,71.25
2019-05-17T19:12:05.351Z,71.12
2019-05-17T19:14:43.047Z,71.56
2019-05-17T19:17:07.083Z,72.15
2019-05-17T19:19:36.736Z,71.95
2019-05-17T19:22:06.597Z,71.49
2019-05-17T19:24:36.256Z,72.40
2019-05-17T19:27:05.886Z,73.38
2019-05-17T19:29:35.674Z,72.92
2019-05-17T19:32:05.515Z,72.81
2019-05-17T19:34:35.708Z,73.47
2019-05-17T19:37:05.288Z,73.55
2019-05-17T19:39:35.620Z,74.25
2019-05-17T19:42:05.252Z,74.20
2019-05-17T19:44:35.588Z,75.05
2019-05-17T19:47:05.232Z,73.64
2019-05-17T19:49:35.734Z,73.71
2019-05-17T19:52:05.507Z,73.55
2019-05-17T19:54:36.058Z,74.51
2019-05-17T19:57:05.691Z,73.91
2019-05-17T19:59:35.659Z,75.18
2019-05-17T20:02:06.593Z,76.32
2019-05-17T20:04:36.287Z,75.87
2019-05-17T20:07:06.069Z,74.49
2019-05-17T20:09:35.736Z,74.84
2019-05-17T20:12:05.543Z,74.15
2019-05-17T20:14:35.749Z,73.74
2019-05-17T20:17:05.398Z,73.08
2019-05-17T20:19:35.633Z,74.46
2019-05-17T20:22:05.283Z,74.50
2019-05-17T20:24:35.718Z,74.26
2019-05-17T20:27:05.345Z,74.26
2019-05-17T20:29:35.650Z,74.89
2019-05-17T20:32:05.290Z,74.89
2019-05-17T20:34:35.661Z,75.04
2019-05-17T20:37:05.420Z,75.01
2019-05-17T20:39:35.688Z,75.14
2019-05-17T20:42:05.410Z,75.04
2019-05-17T20:44:35.732Z,74.44
2019-05-17T20:47:05.371Z,74.97
2019-05-17T20:49:35.743Z,75.15
2019-05-17T20:52:05.460Z,75.29
2019-05-17T20:54:35.941Z,74.63
2019-05-17T20:57:05.568Z,74.78
2019-05-17T20:59:35.776Z,74.88
2019-05-17T21:02:05.471Z,76.04
2019-05-17T21:04:35.764Z,75.28
2019-05-17T21:07:05.529Z,75.44
2019-05-17T21:09:35.770Z,75.44
2019-05-17T21:12:05.422Z,75.13
2019-05-17T21:14:35.828Z,75.64
2019-05-17T21:17:05.478Z,75.97
2019-05-17T21:19:35.825Z,75.29
2019-05-17T21:22:05.681Z,75.82
2019-05-17T21:24:35.780Z,76.50
2019-05-17T21:27:05.450Z,77.45
2019-05-17T21:29:35.872Z,77.49
2019-05-17T21:32:05.454Z,78.24
2019-05-17T21:34:35.769Z,78.28
2019-05-17T21:37:05.419Z,78.75
2019-05-17T21:39:35.732Z,78.37
2019-05-17T21:42:05.384Z,78.26
2019-05-17T21:44:35.790Z,79.43
2019-05-17T21:47:05.441Z,78.88
2019-05-17T21:49:35.845Z,78.75
2019-05-17T21:52:06.138Z,79.20
2019-05-17T21:54:35.883Z,79.82
2019-05-17T21:57:05.454Z,79.90
2019-05-17T21:59:35.807Z,80.16
2019-05-17T22:02:05.612Z,80.52
2019-05-17T22:04:35.831Z,81.22
2019-05-17T22:07:05.951Z,81.24
2019-05-17T22:09:35.858Z,80.75
2019-05-17T22:12:07.144Z,81.37
2019-05-17T22:14:36.948Z,81.74
2019-05-17T22:17:06.533Z,81.94
2019-05-17T22:19:36.107Z,82.41
2019-05-17T22:22:05.829Z,82.81
2019-05-17T22:24:35.764Z,83.52
2019-05-17T22:27:05.409Z,83.47
2019-05-17T22:29:35.901Z,83.59
2019-05-17T22:32:05.683Z,83.00
2019-05-17T22:34:35.860Z,83.32
2019-05-17T22:37:05.454Z,83.65
2019-05-17T22:39:35.826Z,83.97
2019-05-17T22:42:05.402Z,84.24
2019-05-17T22:44:35.873Z,84.51
2019-05-17T22:47:05.517Z,84.76
2019-05-17T22:49:35.896Z,84.92
2019-05-17T22:52:05.672Z,85.54
2019-05-17T22:54:35.849Z,85.38
2019-05-17T22:57:05.505Z,85.10
2019-05-17T22:59:35.870Z,85.20
2019-05-17T23:02:05.420Z,85.15
2019-05-17T23:04:35.892Z,85.35
2019-05-17T23:07:05.599Z,85.54
2019-05-17T23:09:35.917Z,86.13
2019-05-17T23:12:05.479Z,86.60
2019-05-17T23:14:35.935Z,86.41
2019-05-17T23:17:05.585Z,85.66
2019-05-17T23:19:35.807Z,85.96
2019-05-17T23:22:08.579Z,86.45
2019-05-17T23:24:38.707Z,86.79
2019-05-17T23:27:09.573Z,87.30
2019-05-17T23:29:41.271Z,87.23
2019-05-17T23:32:11.059Z,87.06
2019-05-17T23:34:40.623Z,87.45
2019-05-17T23:37:10.203Z,87.57
2019-05-17T23:39:39.940Z,87.32
2019-05-17T23:42:09.515Z,87.13
2019-05-17T23:44:39.070Z,86.82
2019-05-17T23:47:08.657Z,85.89
2019-05-17T23:49:38.213Z,85.50
2019-05-17T23:52:07.797Z,85.16
2019-05-17T23:54:37.374Z,84.93
2019-05-17T23:57:06.930Z,84.06
2019-05-17T23:59:36.495Z,84.05
